Time;durP1;ratioP1;P1;durP2;ratioP2;P2;SDS_P1;SDS_P2;PMS_P1;PMS_P2;Temp;Humidity;BMP_temperature;BMP_pressure;BME280_temperature;BME280_humidity;BME280_pressure;Samples;Min_cycle;Max_cycle;Signal;HPM_P1;HPM_P2
2023/09/16 00:00:06;;;;;;;16.25;14.15;;;14.60;99.90;;;;;;5101035;28;20060;-57
2023/09/16 00:02:31;;;;;;;17.67;15.00;;;14.70;99.90;;;;;;5101218;28;20503;-57
2023/09/16 00:04:57;;;;;;;19.20;15.02;;;14.70;99.90;;;;;;5100146;28;20047;-58
2023/09/16 00:07:23;;;;;;;19.92;15.77;;;14.60;99.90;;;;;;5101376;28;20044;-56
2023/09/16 00:09:48;;;;;;;18.95;15.38;;;14.60;99.90;;;;;;5100028;28;20050;-58
2023/09/16 00:12:14;;;;;;;18.52;15.73;;;14.60;99.90;;;;;;5101702;28;20036;-58
2023/09/16 00:14:40;;;;;;;18.27;16.27;;;14.50;99.90;;;;;;5100535;28;20040;-57
2023/09/16 00:17:05;;;;;;;21.15;16.95;;;14.50;99.90;;;;;;5100765;28;20072;-58
2023/09/16 00:19:31;;;;;;;18.85;16.85;;;14.50;99.90;;;;;;5100673;28;20602;-57
2023/09/16 00:21:57;;;;;;;21.45;16.85;;;14.50;99.90;;;;;;5100147;28;20056;-58
2023/09/16 00:24:23;;;;;;;19.80;16.25;;;14.50;99.90;;;;;;5100792;28;20083;-57
2023/09/16 00:26:49;;;;;;;19.63;16.95;;;14.40;99.90;;;;;;5099074;28;20048;-58
2023/09/16 00:29:15;;;;;;;20.60;16.85;;;14.30;99.90;;;;;;5101374;28;20048;-57
2023/09/16 00:31:41;;;;;;;19.80;16.20;;;14.30;99.90;;;;;;5099762;28;20391;-56
2023/09/16 00:34:06;;;;;;;17.85;15.68;;;14.30;99.90;;;;;;5100850;28;20514;-58
2023/09/16 00:36:32;;;;;;;21.05;16.80;;;14.30;99.90;;;;;;5100508;28;20097;-58
2023/09/16 00:38:58;;;;;;;19.80;16.13;;;14.20;99.90;;;;;;5099725;28;20040;-58
2023/09/16 00:41:23;;;;;;;19.33;15.95;;;14.30;99.90;;;;;;5100546;28;20058;-57
2023/09/16 00:43:50;;;;;;;18.08;16.00;;;14.20;99.90;;;;;;5099493;28;20119;-58
2023/09/16 00:46:16;;;;;;;18.45;16.10;;;14.20;99.90;;;;;;5100742;28;20043;-58
2023/09/16 00:48:45;;;;;;;20.88;16.73;;;14.10;99.90;;;;;;5099431;28;20047;-57
2023/09/16 00:51:13;;;;;;;19.25;16.65;;;14.10;99.90;;;;;;5100376;28;20040;-57
2023/09/16 00:53:41;;;;;;;20.50;16.63;;;14.10;99.90;;;;;;5100076;28;20495;-57
2023/09/16 00:56:07;;;;;;;18.55;16.33;;;14.00;99.90;;;;;;5099445;28;20040;-57
2023/09/16 00:58:34;;;;;;;18.30;15.75;;;14.00;99.90;;;;;;5100256;28;20076;-57
2023/09/16 01:01:01;;;;;;;19.77;17.02;;;14.00;99.90;;;;;;5099114;28;20040;-57
2023/09/16 01:03:27;;;;;;;21.13;17.35;;;14.00;99.90;;;;;;5100656;28;20044;-57
2023/09/16 01:05:54;;;;;;;18.05;15.48;;;13.90;99.90;;;;;;5099346;28;20044;-57
2023/09/16 01:08:22;;;;;;;18.48;15.82;;;14.00;99.90;;;;;;5100129;28;20048;-58
2023/09/16 01:10:48;;;;;;;20.30;16.15;;;13.90;99.90;;;;;;5099894;28;20040;-57
2023/09/16 01:13:14;;;;;;;21.02;17.33;;;13.90;99.90;;;;;;5099168;28;20038;-58
2023/09/16 01:15:55;;;;;;;20.33;16.48;;;14.00;99.90;;;;;;5100058;28;20443;-58
2023/09/16 01:18:29;;;;;;;22.35;16.27;;;14.00;99.90;;;;;;5098867;28;20070;-57
2023/09/16 01:20:58;;;;;;;22.20;18.15;;;14.00;99.90;;;;;;5100204;28;20108;-57
2023/09/16 01:23:23;;;;;;;20.30;16.85;;;14.00;99.90;;;;;;5099193;28;20047;-57
2023/09/16 01:25:49;;;;;;;20.83;18.05;;;14.00;99.90;;;;;;5099212;28;20043;-58
2023/09/16 01:28:15;;;;;;;21.58;16.95;;;14.00;99.90;;;;;;5099838;28;20063;-57
2023/09/16 01:30:47;;;;;;;21.30;16.90;;;13.90;99.90;;;;;;5098763;28;20527;-57
2023/09/16 01:33:19;;;;;;;;;;;14.00;99.90;;;;;;5100697;28;20040;-60
2023/09/16 01:35:47;;;;;;;20.67;16.63;;;14.00;99.90;;;;;;5098908;28;19944;-57
2023/09/16 01:38:15;;;;;;;22.98;16.45;;;13.90;99.90;;;;;;5099903;28;20028;-58
2023/09/16 01:40:43;;;;;;;22.95;17.75;;;14.00;99.90;;;;;;5099324;28;20046;-58
2023/09/16 01:43:10;;;;;;;21.27;18.08;;;13.90;99.90;;;;;;5097591;28;20040;-58
2023/09/16 01:45:40;;;;;;;21.02;17.17;;;14.00;99.90;;;;;;5099877;28;20059;-57
2023/09/16 01:48:06;;;;;;;20.98;17.67;;;14.00;99.90;;;;;;5098563;28;20073;-58
2023/09/16 01:50:32;;;;;;;20.13;17.02;;;13.90;99.90;;;;;;5099818;28;20044;-58
2023/09/16 01:52:57;;;;;;;19.25;17.00;;;14.00;99.90;;;;;;5098480;28;20055;-58
2023/09/16 01:55:24;;;;;;;20.30;17.65;;;14.00;99.90;;;;;;5099646;28;20040;-58
2023/09/16 01:57:49;;;;;;;23.38;17.88;;;14.10;99.90;;;;;;5099085;28;20055;-58
2023/09/16 02:00:15;;;;;;;20.40;16.95;;;14.10;99.90;;;;;;5098848;28;20048;-57
2023/09/16 02:02:41;;;;;;;23.10;17.95;;;14.00;99.90;;;;;;5099519;28;20529;-56
2023/09/16 02:05:07;;;;;;;19.98;17.60;;;14.00;99.90;;;;;;5098229;28;20108;-57
2023/09/16 02:07:33;;;;;;;20.40;16.90;;;14.00;99.90;;;;;;5099544;28;20121;-57
2023/09/16 02:09:58;;;;;;;19.52;16.30;;;14.00;99.90;;;;;;5098423;28;20047;-58
2023/09/16 02:12:24;;;;;;;21.25;16.88;;;14.00;99.90;;;;;;5099673;28;20036;-58
2023/09/16 02:14:51;;;;;;;21.70;17.70;;;14.00;99.90;;;;;;5098831;28;20074;-57
2023/09/16 02:17:17;;;;;;;21.02;16.67;;;13.90;99.90;;;;;;5098935;28;20055;-58
2023/09/16 02:19:43;;;;;;;20.20;16.77;;;13.90;99.90;;;;;;5098943;28;20083;-55
2023/09/16 02:22:09;;;;;;;21.52;17.30;;;14.00;99.90;;;;;;5098055;28;20241;-58
2023/09/16 02:24:35;;;;;;;22.25;16.65;;;14.00;99.90;;;;;;5099598;28;20048;-57
2023/09/16 02:27:00;;;;;;;18.58;16.50;;;13.90;99.90;;;;;;5098212;28;20522;-57
2023/09/16 02:29:26;;;;;;;21.88;17.52;;;13.90;99.90;;;;;;5098143;28;20075;-57
2023/09/16 02:31:52;;;;;;;20.77;17.42;;;13.80;99.90;;;;;;5097353;28;20035;-57
2023/09/16 02:34:17;;;;;;;19.30;16.20;;;13.80;99.90;;;;;;5098755;28;20082;-58
2023/09/16 02:36:43;;;;;;;18.63;15.93;;;13.80;99.90;;;;;;5099114;28;20095;-58
2023/09/16 02:39:09;;;;;;;20.70;17.00;;;13.80;99.90;;;;;;5097995;28;20621;-57
2023/09/16 02:41:34;;;;;;;20.67;16.90;;;13.80;99.90;;;;;;5099350;28;20465;-57
2023/09/16 02:44:00;;;;;;;20.40;16.55;;;13.80;99.90;;;;;;5096703;28;20044;-58
2023/09/16 02:46:26;;;;;;;20.25;17.52;;;13.80;99.90;;;;;;5099512;28;20105;-58
2023/09/16 02:48:51;;;;;;;20.52;17.38;;;13.80;99.90;;;;;;5098557;28;20522;-58
2023/09/16 02:51:17;;;;;;;20.42;16.80;;;13.70;99.90;;;;;;5102691;28;20166;-58
2023/09/16 02:53:43;;;;;;;21.25;17.85;;;13.70;99.90;;;;;;5102671;28;20047;-57
2023/09/16 02:56:09;;;;;;;19.60;16.55;;;13.70;99.90;;;;;;5101660;28;20036;-58
2023/09/16 02:58:35;;;;;;;19.30;15.35;;;13.70;99.90;;;;;;5102489;28;20491;-57
2023/09/16 03:01:08;;;;;;;18.98;14.95;;;13.60;99.90;;;;;;5101654;28;20056;-58
2023/09/16 03:03:35;;;;;;;20.15;17.00;;;13.60;99.90;;;;;;5102815;28;20400;-57
2023/09/16 03:06:00;;;;;;;19.83;17.70;;;13.70;99.90;;;;;;5101756;28;20051;-56
2023/09/16 03:08:26;;;;;;;20.80;17.50;;;13.70;99.90;;;;;;5102149;28;20071;-57
2023/09/16 03:10:52;;;;;;;20.20;17.52;;;13.60;99.90;;;;;;5100923;28;20412;-57
2023/09/16 03:13:17;;;;;;;21.67;17.00;;;13.60;99.90;;;;;;5101609;28;20100;-58
2023/09/16 03:15:47;;;;;;;19.23;17.23;;;13.60;99.90;;;;;;5102606;28;20484;-56
2023/09/16 03:18:13;;;;;;;19.50;16.77;;;13.60;99.90;;;;;;5099641;28;20068;-57
2023/09/16 03:20:38;;;;;;;21.30;17.02;;;13.60;99.90;;;;;;5102203;28;20048;-57
2023/09/16 03:23:04;;;;;;;20.27;17.88;;;13.60;99.90;;;;;;5101331;28;20040;-57
2023/09/16 03:25:30;;;;;;;20.27;17.83;;;13.50;99.90;;;;;;5102067;28;20044;-57
2023/09/16 03:27:55;;;;;;;22.00;17.95;;;13.50;99.90;;;;;;5101961;28;20047;-57
2023/09/16 03:30:21;;;;;;;21.17;17.38;;;13.50;99.90;;;;;;5101130;28;20079;-58
2023/09/16 03:32:47;;;;;;;22.58;18.00;;;13.50;99.90;;;;;;5102047;28;20051;-55
2023/09/16 03:35:12;;;;;;;21.40;17.65;;;13.50;99.90;;;;;;5100584;28;20067;-58
2023/09/16 03:37:38;;;;;;;20.67;18.20;;;13.40;99.90;;;;;;5102290;28;20071;-58
2023/09/16 03:40:04;;;;;;;21.20;17.77;;;13.40;99.90;;;;;;5100769;28;20047;-57
2023/09/16 03:42:30;;;;;;;22.20;17.83;;;13.40;99.90;;;;;;5101994;28;20048;-58
2023/09/16 03:44:56;;;;;;;20.60;17.80;;;13.50;99.90;;;;;;5101565;28;20043;-57
2023/09/16 03:47:21;;;;;;;20.75;18.48;;;13.40;99.90;;;;;;5100998;28;20036;-58
2023/09/16 03:49:47;;;;;;;22.20;18.85;;;13.40;99.90;;;;;;5101518;28;20051;-57
2023/09/16 03:52:13;;;;;;;21.50;17.63;;;13.40;99.90;;;;;;5100669;28;20107;-57
2023/09/16 03:54:38;;;;;;;22.65;17.83;;;13.40;99.90;;;;;;5101903;28;20044;-58
2023/09/16 03:57:04;;;;;;;21.58;18.00;;;13.40;99.90;;;;;;5100541;28;20044;-57
2023/09/16 03:59:30;;;;;;;23.38;19.00;;;13.40;99.90;;;;;;5105009;28;20537;-58
2023/09/16 04:01:56;;;;;;;20.92;18.15;;;13.40;99.90;;;;;;5099928;28;20111;-57
2023/09/16 04:04:21;;;;;;;21.20;17.33;;;13.30;99.90;;;;;;5100600;28;20434;-57
2023/09/16 04:06:47;;;;;;;20.73;17.88;;;13.40;99.90;;;;;;5101430;28;20050;-56
2023/09/16 04:09:12;;;;;;;20.55;18.33;;;13.30;99.90;;;;;;5100348;28;20095;-58
2023/09/16 04:11:38;;;;;;;21.58;17.88;;;13.30;99.90;;;;;;5101402;28;20095;-57
2023/09/16 04:14:04;;;;;;;21.27;17.45;;;13.30;99.90;;;;;;5099953;28;20073;-58
2023/09/16 04:16:29;;;;;;;22.05;18.15;;;13.30;99.90;;;;;;5101413;28;20103;-57
2023/09/16 04:18:55;;;;;;;21.92;18.17;;;13.30;99.90;;;;;;5100022;28;20125;-58
2023/09/16 04:21:21;;;;;;;20.15;17.08;;;13.30;99.90;;;;;;5100609;28;20051;-58
2023/09/16 04:23:46;;;;;;;20.30;18.02;;;13.30;99.90;;;;;;5101014;28;20113;-56
2023/09/16 04:26:15;;;;;;;20.15;17.15;;;13.30;99.90;;;;;;5100082;28;20105;-57
2023/09/16 04:28:40;;;;;;;19.70;16.17;;;13.20;99.90;;;;;;5101073;28;20096;-58
2023/09/16 04:31:08;;;;;;;19.85;17.50;;;13.20;99.90;;;;;;5099844;28;20075;-58
2023/09/16 04:33:34;;;;;;;21.63;17.40;;;13.20;99.90;;;;;;5101212;28;20480;-58
2023/09/16 04:36:00;;;;;;;20.83;16.70;;;13.20;99.90;;;;;;5100079;28;20054;-57
2023/09/16 04:38:26;;;;;;;19.25;17.05;;;13.20;99.90;;;;;;5099115;28;20044;-58
2023/09/16 04:40:52;;;;;;;19.30;16.40;;;13.10;99.90;;;;;;5100530;28;20090;-61
2023/09/16 04:43:17;;;;;;;20.25;17.15;;;13.10;99.90;;;;;;5099599;28;20040;-59
2023/09/16 04:45:44;;;;;;;20.45;16.42;;;13.10;99.90;;;;;;5100625;28;20075;-58
2023/09/16 04:48:13;;;;;;;20.23;16.38;;;13.10;99.90;;;;;;5099590;28;20118;-58
2023/09/16 04:50:43;;;;;;;18.08;15.88;;;13.10;99.90;;;;;;5100659;28;20131;-58
2023/09/16 04:53:09;;;;;;;18.23;15.77;;;13.10;99.90;;;;;;5099784;28;20040;-58
2023/09/16 04:55:35;;;;;;;19.77;16.48;;;13.10;99.90;;;;;;5100048;28;20088;-58
2023/09/16 04:58:01;;;;;;;19.33;16.17;;;13.10;99.90;;;;;;5100223;28;20050;-58
2023/09/16 05:00:33;;;;;;;17.80;15.90;;;13.10;99.90;;;;;;5099068;28;20059;-58
2023/09/16 05:02:59;;;;;;;19.38;16.35;;;13.10;99.90;;;;;;5100662;28;20108;-57
2023/09/16 05:05:25;;;;;;;20.45;16.88;;;13.10;99.90;;;;;;5097736;28;20088;-57
2023/09/16 05:07:50;;;;;;;19.20;16.20;;;13.10;99.90;;;;;;5100622;28;20180;-58
2023/09/16 05:10:16;;;;;;;18.95;15.68;;;13.10;99.90;;;;;;5099351;28;20040;-57
2023/09/16 05:12:42;;;;;;;18.33;15.65;;;13.00;99.90;;;;;;5099677;28;20039;-57
2023/09/16 05:15:09;;;;;;;19.05;15.60;;;13.00;99.90;;;;;;5099800;28;20075;-57
2023/09/16 05:17:36;;;;;;;19.38;15.77;;;13.00;99.90;;;;;;5099084;28;20413;-57
2023/09/16 05:20:03;;;;;;;21.05;16.05;;;13.10;99.90;;;;;;5099797;28;20080;-58
2023/09/16 05:22:29;;;;;;;19.60;16.50;;;13.10;99.90;;;;;;5098937;28;20117;-58
2023/09/16 05:24:55;;;;;;;19.50;16.23;;;13.10;99.90;;;;;;5099158;28;20487;-58
2023/09/16 05:27:21;;;;;;;19.73;16.27;;;13.10;99.90;;;;;;5098978;28;20389;-57
2023/09/16 05:29:51;;;;;;;20.90;16.80;;;13.10;99.90;;;;;;5098441;28;20040;-58
2023/09/16 05:32:17;;;;;;;20.27;16.60;;;13.10;99.90;;;;;;5099701;28;20069;-58
2023/09/16 05:34:43;;;;;;;21.58;16.77;;;13.10;99.90;;;;;;5098760;28;20103;-57
2023/09/16 05:37:08;;;;;;;21.20;15.98;;;13.10;99.90;;;;;;5099819;28;20048;-57
2023/09/16 05:39:34;;;;;;;22.65;17.75;;;13.10;99.90;;;;;;5098484;28;20078;-58
2023/09/16 05:42:00;;;;;;;20.50;16.15;;;13.20;99.90;;;;;;5100111;28;20040;-58
2023/09/16 05:44:26;;;;;;;21.85;16.65;;;13.20;99.90;;;;;;5098466;28;20068;-56
2023/09/16 05:46:51;;;;;;;18.88;15.43;;;13.20;99.90;;;;;;5099487;28;20040;-57
2023/09/16 05:49:18;;;;;;;19.45;15.73;;;13.30;99.90;;;;;;5099390;28;20036;-56
2023/09/16 05:51:44;;;;;;;19.38;16.08;;;13.30;99.90;;;;;;5098757;28;20042;-58
2023/09/16 05:54:10;;;;;;;19.55;15.57;;;13.30;99.90;;;;;;5098356;28;20079;-57
2023/09/16 05:56:38;;;;;;;20.27;15.50;;;13.30;99.90;;;;;;5098193;28;20063;-55
2023/09/16 05:59:05;;;;;;;19.75;15.45;;;13.40;99.90;;;;;;5099584;28;20126;-58
2023/09/16 06:01:30;;;;;;;19.98;16.10;;;13.40;99.90;;;;;;5098532;28;20048;-57
2023/09/16 06:03:56;;;;;;;19.10;15.40;;;13.50;99.90;;;;;;5099592;28;20461;-57
2023/09/16 06:06:22;;;;;;;20.83;16.50;;;13.40;99.90;;;;;;5099403;28;20032;-57
2023/09/16 06:08:47;;;;;;;18.80;15.88;;;13.50;99.90;;;;;;5098788;28;20077;-56
2023/09/16 06:11:13;;;;;;;19.10;15.48;;;13.60;99.90;;;;;;5099349;28;20210;-57
2023/09/16 06:13:39;;;;;;;19.02;15.07;;;13.60;99.90;;;;;;5098178;28;20108;-57
2023/09/16 06:16:07;;;;;;;18.00;14.95;;;13.60;99.90;;;;;;5099811;28;20036;-57
2023/09/16 06:18:32;;;;;;;18.95;16.23;;;13.70;99.90;;;;;;5098007;28;20050;-57
2023/09/16 06:20:58;;;;;;;20.23;15.88;;;13.80;99.90;;;;;;5099545;28;20032;-57
2023/09/16 06:23:25;;;;;;;22.33;17.65;;;13.90;99.90;;;;;;5099155;28;20047;-56
2023/09/16 06:25:51;;;;;;;20.27;16.17;;;13.90;99.90;;;;;;5101093;28;20063;-57
2023/09/16 06:28:17;;;;;;;23.17;15.95;;;14.00;99.90;;;;;;5101871;28;20396;-57
2023/09/16 06:30:42;;;;;;;21.42;17.02;;;14.00;99.90;;;;;;5102043;28;20079;-56
2023/09/16 06:33:08;;;;;;;21.52;16.42;;;14.10;99.90;;;;;;5103462;28;20377;-57
2023/09/16 06:35:34;;;;;;;20.85;16.65;;;14.20;99.90;;;;;;5102012;28;20535;-57
2023/09/16 06:37:59;;;;;;;20.13;15.82;;;14.30;99.90;;;;;;5101878;28;20048;-57
2023/09/16 06:40:25;;;;;;;20.98;17.63;;;14.30;99.90;;;;;;5102550;28;20393;-57
2023/09/16 06:42:50;;;;;;;22.65;17.75;;;14.40;99.90;;;;;;5102234;28;20071;-57
2023/09/16 06:45:16;;;;;;;23.00;17.90;;;14.50;99.90;;;;;;5103074;28;20523;-56
2023/09/16 06:47:42;;;;;;;23.30;18.02;;;14.60;99.90;;;;;;5101911;28;20617;-57
2023/09/16 06:50:12;;;;;;;22.20;16.95;;;14.60;99.90;;;;;;5102881;28;20040;-57
2023/09/16 06:52:37;;;;;;;23.00;17.80;;;14.70;99.90;;;;;;5101954;28;20082;-57
2023/09/16 06:55:04;;;;;;;21.83;16.77;;;14.80;99.90;;;;;;5102915;28;20399;-57
2023/09/16 06:57:31;;;;;;;22.60;18.58;;;14.80;99.90;;;;;;5102209;28;20048;-57
2023/09/16 06:59:57;;;;;;;22.55;18.10;;;14.90;99.90;;;;;;5101936;28;20052;-58
2023/09/16 07:02:23;;;;;;;24.30;18.35;;;14.90;99.90;;;;;;5102620;28;20082;-57
2023/09/16 07:04:50;;;;;;;22.15;18.35;;;15.10;99.90;;;;;;5101368;28;20040;-57
2023/09/16 07:07:16;;;;;;;21.83;17.08;;;15.10;99.90;;;;;;5102714;28;20044;-56
2023/09/16 07:09:42;;;;;;;22.38;16.58;;;15.10;99.90;;;;;;5101359;28;20618;-56
2023/09/16 07:12:08;;;;;;;23.08;16.90;;;15.20;99.90;;;;;;5102791;28;20052;-57
2023/09/16 07:14:37;;;;;;;21.27;16.63;;;15.30;99.90;;;;;;5101795;28;20689;-57
2023/09/16 07:17:04;;;;;;;18.48;15.05;;;15.30;99.90;;;;;;5101959;28;20036;-57
2023/09/16 07:19:30;;;;;;;20.05;15.88;;;15.50;99.90;;;;;;5101858;28;20040;-57
2023/09/16 07:21:55;;;;;;;20.02;16.10;;;15.50;99.90;;;;;;5101408;28;20070;-57
2023/09/16 07:24:21;;;;;;;20.83;14.52;;;15.60;99.90;;;;;;5102271;28;20085;-57
2023/09/16 07:26:48;;;;;;;19.95;15.10;;;15.70;99.90;;;;;;5101094;28;20044;-57
2023/09/16 07:29:14;;;;;;;18.73;14.68;;;15.80;99.90;;;;;;5102592;28;20075;-57
2023/09/16 07:31:40;;;;;;;20.95;14.90;;;15.80;99.90;;;;;;5101495;28;20097;-57
2023/09/16 07:34:05;;;;;;;19.17;15.50;;;16.00;99.90;;;;;;5101668;28;20052;-57
2023/09/16 07:36:31;;;;;;;23.35;16.17;;;16.10;99.90;;;;;;5101651;28;20119;-56
2023/09/16 07:38:57;;;;;;;20.45;14.07;;;16.20;99.90;;;;;;5100735;28;20047;-57
2023/09/16 07:41:23;;;;;;;19.85;13.10;;;16.30;99.90;;;;;;5101768;28;20052;-55
2023/09/16 07:43:49;;;;;;;19.77;13.88;;;16.30;99.90;;;;;;5099385;28;20100;-58
2023/09/16 07:46:14;;;;;;;16.67;13.32;;;16.40;99.90;;;;;;5102245;28;20051;-57
2023/09/16 07:48:40;;;;;;;18.40;13.88;;;16.40;99.90;;;;;;5100667;28;20048;-57
2023/09/16 07:51:06;;;;;;;18.25;14.05;;;16.60;99.90;;;;;;5101704;28;20071;-58
2023/09/16 07:53:31;;;;;;;19.17;14.82;;;16.60;99.90;;;;;;5101377;28;20043;-58
2023/09/16 07:55:57;;;;;;;18.95;14.43;;;16.70;99.90;;;;;;5100742;28;20086;-56
2023/09/16 07:58:23;;;;;;;17.15;12.68;;;16.80;99.90;;;;;;5101613;28;20044;-57
2023/09/16 08:00:49;;;;;;;18.58;14.50;;;16.80;99.90;;;;;;5100260;28;20056;-57
2023/09/16 08:03:15;;;;;;;18.02;14.20;;;16.90;99.90;;;;;;5100467;28;20462;-57
2023/09/16 08:05:40;;;;;;;17.88;14.18;;;17.00;99.90;;;;;;5100614;28;20040;-58
2023/09/16 08:08:06;;;;;;;20.20;14.30;;;17.10;99.90;;;;;;5101307;28;20047;-58
2023/09/16 08:10:32;;;;;;;19.27;14.52;;;17.20;99.90;;;;;;5101034;28;20560;-56
2023/09/16 08:12:57;;;;;;;17.70;14.48;;;17.20;99.90;;;;;;5100482;28;20099;-56
2023/09/16 08:15:23;;;;;;;17.33;13.85;;;17.20;99.90;;;;;;5101223;28;20044;-57
2023/09/16 08:17:49;;;;;;;18.48;14.65;;;17.30;99.90;;;;;;5100192;28;20036;-57
2023/09/16 08:20:18;;;;;;;19.02;14.95;;;17.40;99.90;;;;;;5101068;28;20047;-57
2023/09/16 08:22:44;;;;;;;20.05;14.77;;;17.40;99.90;;;;;;5100121;28;20047;-57
2023/09/16 08:25:10;;;;;;;17.38;13.65;;;17.50;99.90;;;;;;5101252;28;20040;-57
2023/09/16 08:27:35;;;;;;;18.67;13.75;;;17.60;95.40;;;;;;5100580;28;20039;-57
2023/09/16 08:30:01;;;;;;;16.98;13.82;;;17.70;90.90;;;;;;5100184;28;20098;-56
2023/09/16 08:32:28;;;;;;;18.20;13.38;;;17.80;90.00;;;;;;5101057;28;20040;-57
2023/09/16 08:34:57;;;;;;;17.95;13.52;;;17.80;89.00;;;;;;5099721;28;20108;-57
2023/09/16 08:37:23;;;;;;;17.60;12.98;;;17.80;93.90;;;;;;5100995;28;20047;-57
2023/09/16 08:39:48;;;;;;;18.08;13.57;;;18.00;93.50;;;;;;5099685;28;20040;-57
2023/09/16 08:42:35;;;;;;;18.05;13.27;;;18.00;99.20;;;;;;5100830;28;20068;-58
2023/09/16 08:45:05;;;;;;;17.02;12.82;;;18.10;97.80;;;;;;5100533;28;20047;-57
2023/09/16 08:47:39;;;;;;;17.67;13.30;;;18.20;95.20;;;;;;5099100;28;20036;-58
2023/09/16 08:50:09;;;;;;;15.23;12.05;;;18.20;92.80;;;;;;5100652;28;20260;-57
2023/09/16 08:52:48;;;;;;;15.48;11.73;;;18.40;75.30;;;;;;5099599;28;20097;-57
2023/09/16 08:55:15;;;;;;;14.13;10.68;;;18.40;75.40;;;;;;5100486;28;20051;-57
2023/09/16 08:57:51;;;;;;;18.73;12.25;;;18.50;77.50;;;;;;5100161;28;20098;-57
2023/09/16 09:00:17;;;;;;;16.45;11.57;;;18.60;74.40;;;;;;5099056;28;20075;-57
2023/09/16 09:02:44;;;;;;;18.48;12.10;;;18.70;69.80;;;;;;5100476;28;20040;-57
2023/09/16 09:05:11;;;;;;;15.05;11.20;;;18.80;70.60;;;;;;5099042;28;20524;-57
2023/09/16 09:07:39;;;;;;;17.88;12.20;;;18.80;70.20;;;;;;5100542;28;20171;-57
2023/09/16 09:10:06;;;;;;;15.73;11.88;;;18.90;65.60;;;;;;5099666;28;20055;-57
2023/09/16 09:12:37;;;;;;;14.68;11.23;;;18.90;66.70;;;;;;5098417;28;20044;-58
2023/09/16 09:15:06;;;;;;;15.48;11.43;;;19.00;61.90;;;;;;5100079;28;20055;-57
2023/09/16 09:17:39;;;;;;;14.75;11.43;;;19.10;63.00;;;;;;5099018;28;20043;-57
2023/09/16 09:20:13;;;;;;;15.73;11.57;;;19.20;52.20;;;;;;5100076;28;20092;-58
2023/09/16 09:22:42;;;;;;;16.90;11.05;;;19.20;51.00;;;;;;5098975;28;20040;-57
2023/09/16 09:25:08;;;;;;;15.05;10.88;;;19.30;51.90;;;;;;5100092;28;20415;-57
2023/09/16 09:27:34;;;;;;;15.43;10.32;;;19.50;50.30;;;;;;5099514;28;20044;-57
2023/09/16 09:30:00;;;;;;;13.65;9.75;;;19.40;38.40;;;;;;5099250;28;20095;-57
2023/09/16 09:32:31;;;;;;;14.30;9.45;;;19.50;26.70;;;;;;5100062;28;20055;-57
2023/09/16 09:34:57;;;;;;;13.70;10.45;;;19.60;23.00;;;;;;5098690;28;20411;-58
2023/09/16 09:37:24;;;;;;;12.77;9.13;;;19.80;19.90;;;;;;5099985;28;20059;-57
2023/09/16 09:40:06;;;;;;;14.38;9.38;;;19.80;11.70;;;;;;5097314;28;20921;-57
2023/09/16 09:42:32;;;;;;;13.73;9.80;;;20.00;1.00;;;;;;5098363;28;20063;-57
2023/09/16 09:45:04;;;;;;;12.18;8.07;;;20.00;9.90;;;;;;5099712;28;20040;-57
2023/09/16 09:47:30;;;;;;;10.98;7.28;;;20.00;2.20;;;;;;5098693;28;20051;-58
2023/09/16 09:49:56;;;;;;;10.77;7.20;;;20.20;1.00;;;;;;5099593;28;20063;-58
2023/09/16 09:52:22;;;;;;;13.02;7.65;;;20.20;1.00;;;;;;5098288;28;20087;-57
2023/09/16 09:54:55;;;;;;;11.13;7.28;;;20.20;1.00;;;;;;5099876;28;20056;-58
2023/09/16 09:57:22;;;;;;;12.93;7.82;;;20.40;1.00;;;;;;5097455;28;20517;-57
2023/09/16 09:59:48;;;;;;;11.35;6.78;;;20.50;1.00;;;;;;5101118;28;20449;-58
2023/09/16 10:02:14;;;;;;;12.88;8.13;;;20.50;1.00;;;;;;5103650;28;20133;-57
2023/09/16 10:04:40;;;;;;;11.52;6.60;;;20.40;1.00;;;;;;5102582;28;20048;-58
2023/09/16 10:07:06;;;;;;;11.75;6.38;;;20.60;1.00;;;;;;5103895;28;20078;-57
2023/09/16 10:09:32;;;;;;;10.52;6.47;;;20.60;1.00;;;;;;5102591;28;20097;-57
2023/09/16 10:11:58;;;;;;;9.68;5.82;;;20.60;1.00;;;;;;5103960;28;20055;-57
2023/09/16 10:14:25;;;;;;;11.45;6.25;;;20.70;1.00;;;;;;5102873;28;20044;-57
2023/09/16 10:16:52;;;;;;;8.65;5.93;;;20.80;1.00;;;;;;5103197;28;20099;-59
2023/09/16 10:19:20;;;;;;;12.10;6.55;;;20.80;1.00;;;;;;5101937;28;20075;-57
2023/09/16 10:21:46;;;;;;;12.95;7.32;;;21.00;1.00;;;;;;5102343;28;20089;-57
2023/09/16 10:24:12;;;;;;;11.85;6.93;;;21.00;1.00;;;;;;5102184;28;20044;-57
2023/09/16 10:26:39;;;;;;;13.10;6.75;;;21.00;1.00;;;;;;5102216;28;20040;-57
2023/09/16 10:29:06;;;;;;;12.10;5.50;;;21.00;1.00;;;;;;5103645;28;20075;-57
2023/09/16 10:31:33;;;;;;;10.85;5.72;;;21.00;1.00;;;;;;5102609;28;20047;-58
2023/09/16 10:33:59;;;;;;;8.80;5.00;;;21.20;1.00;;;;;;5102744;28;20044;-56
2023/09/16 10:36:26;;;;;;;10.35;6.25;;;21.20;1.00;;;;;;5103133;28;20389;-58
2023/09/16 10:38:54;;;;;;;10.10;6.43;;;21.30;1.00;;;;;;5102221;28;20055;-58
2023/09/16 10:41:21;;;;;;;10.23;6.70;;;21.40;1.00;;;;;;5102911;28;20052;-58
2023/09/16 10:43:47;;;;;;;10.07;6.10;;;21.30;1.00;;;;;;5101734;28;20115;-58
2023/09/16 10:46:13;;;;;;;9.93;5.30;;;21.30;1.00;;;;;;5103229;28;20040;-58
2023/09/16 10:48:39;;;;;;;11.48;5.82;;;21.40;1.00;;;;;;5101877;28;20274;-58
2023/09/16 10:51:13;;;;;;;12.57;6.38;;;21.50;1.00;;;;;;5102791;28;20051;-58
2023/09/16 10:53:40;;;;;;;10.48;6.20;;;21.60;1.00;;;;;;5102813;28;20120;-56
2023/09/16 10:56:24;;;;;;;8.88;5.57;;;21.60;1.00;;;;;;5101833;28;20123;-58
2023/09/16 10:59:10;;;;;;;11.43;5.35;;;21.60;1.00;;;;;;5102795;28;20043;-58
2023/09/16 11:01:49;;;;;;;9.55;5.53;;;21.60;1.00;;;;;;5101926;28;20063;-59
2023/09/16 11:04:17;;;;;;;8.80;5.75;;;21.70;1.00;;;;;;5101741;28;20111;-57
2023/09/16 11:06:47;;;;;;;8.90;5.28;;;21.80;1.00;;;;;;5102674;28;20068;-59
2023/09/16 11:09:14;;;;;;;9.07;4.45;;;21.90;1.00;;;;;;5101231;28;20074;-58
2023/09/16 11:11:40;;;;;;;9.98;4.88;;;22.10;1.00;;;;;;5100887;28;20047;-58
2023/09/16 11:14:07;;;;;;;8.95;5.07;;;22.10;1.00;;;;;;5101245;28;20036;-56
2023/09/16 11:16:43;;;;;;;9.20;4.85;;;22.00;1.00;;;;;;5102520;28;20107;-58
2023/09/16 11:19:13;;;;;;;9.32;5.07;;;22.10;1.00;;;;;;5102031;28;20044;-57
2023/09/16 11:21:40;;;;;;;10.38;5.28;;;22.00;1.00;;;;;;5101106;28;20058;-58
2023/09/16 11:24:06;;;;;;;8.23;4.35;;;22.00;1.00;;;;;;5102117;28;20043;-58
2023/09/16 11:26:38;;;;;;;10.38;4.28;;;22.10;1.00;;;;;;5101068;28;20063;-58
2023/09/16 11:29:22;;;;;;;7.70;3.72;;;22.10;1.00;;;;;;5102415;28;20518;-58
2023/09/16 11:31:48;;;;;;;8.98;3.92;;;22.10;1.00;;;;;;5101740;28;20053;-58
2023/09/16 11:34:17;;;;;;;7.22;3.20;;;22.30;1.00;;;;;;5101208;28;20147;-58
2023/09/16 11:36:43;;;;;;;8.35;3.90;;;22.40;1.00;;;;;;5102072;28;20053;-58
2023/09/16 11:39:12;;;;;;;8.50;3.83;;;22.50;1.00;;;;;;5100905;28;20031;-58
2023/09/16 11:41:38;;;;;;;9.25;4.72;;;22.60;1.00;;;;;;5101958;28;20051;-58
2023/09/16 11:44:07;;;;;;;8.05;4.15;;;22.40;1.00;;;;;;5100861;28;20068;-58
2023/09/16 11:46:34;;;;;;;10.23;4.10;;;22.50;1.00;;;;;;5101821;28;20516;-58
2023/09/16 11:49:05;;;;;;;7.13;3.50;;;22.60;1.00;;;;;;5101032;28;20051;-57
2023/09/16 11:51:36;;;;;;;8.32;4.13;;;22.70;1.00;;;;;;5100936;28;20106;-58
2023/09/16 11:54:03;;;;;;;8.23;4.50;;;22.80;1.00;;;;;;5101815;28;20051;-58
2023/09/16 11:56:31;;;;;;;7.72;3.65;;;22.70;1.00;;;;;;5100318;28;20379;-58
2023/09/16 11:58:58;;;;;;;7.13;3.53;;;22.80;1.00;;;;;;5100440;28;20040;-58
2023/09/16 12:01:40;;;;;;;7.85;3.55;;;22.90;1.00;;;;;;5100340;28;20479;-58
2023/09/16 12:04:07;;;;;;;;;;;22.70;1.00;;;;;;5101446;28;20040;-58
2023/09/16 12:06:37;;;;;;;8.38;3.40;;;23.00;1.00;;;;;;5101423;28;19965;-57
2023/09/16 12:09:06;;;;;;;6.75;3.13;;;22.90;1.00;;;;;;5100202;28;20051;-58
2023/09/16 12:11:33;;;;;;;6.75;2.65;;;23.00;1.00;;;;;;5101430;28;20066;-58
2023/09/16 12:14:00;;;;;;;7.28;3.42;;;23.00;1.00;;;;;;5098694;28;20063;-58
2023/09/16 12:16:27;;;;;;;6.75;2.95;;;22.80;1.00;;;;;;5101401;28;20044;-58
2023/09/16 12:18:53;;;;;;;8.30;2.95;;;22.70;1.00;;;;;;5100588;28;20130;-58
2023/09/16 12:21:19;;;;;;;8.32;3.15;;;22.60;1.00;;;;;;5099746;28;20503;-58
2023/09/16 12:23:50;;;;;;;6.40;2.33;;;22.60;1.00;;;;;;5100878;28;20148;-57
2023/09/16 12:26:16;;;;;;;6.15;2.75;;;22.60;1.00;;;;;;5100037;28;20051;-58
2023/09/16 12:28:42;;;;;;;7.38;2.97;;;22.80;1.00;;;;;;5101308;28;20051;-58
2023/09/16 12:31:09;;;;;;;6.72;2.80;;;23.00;1.00;;;;;;5099818;28;20040;-58